Terminal Aerodrome Forecast
Issued by NWS

Home | Current Version | Previous Version | Text Only | Print | Product List | Glossary On
Versions: 1 2 3 4 5 6 7 8 9 10 11 12 13 14 15 16 17 18 19 20 21 22 23 24 25
000
FTUS42 KMFL 230849 AAA
TAFTMB
TAF AMD
KTMB 230849Z 2309/2406 VRB03KT P6SM SKC
     FM231200 05008KT P6SM VCSH SCT030 SCT100
     FM231600 07014G24KT P6SM VCTS SCT025CB BKN050
     FM232200 07015G25KT P6SM VCSH SCT025 BKN050
     FM240300 07011KT P6SM SCT025 BKN050=

USA.gov is the U.S. government's official web portal to all federal, state and local government web resources and services.